createdAt,value
2023-02-22T00:01:23.098Z,74.58
2023-02-22T00:03:52.443Z,73.79
2023-02-22T00:06:25.144Z,74.62
2023-02-22T00:08:53.315Z,74.67
2023-02-22T00:11:21.449Z,72.95
2023-02-22T00:13:50.635Z,73.42
2023-02-22T00:16:20.310Z,73.37
2023-02-22T00:18:47.931Z,72.39
2023-02-22T00:21:17.273Z,72.51
2023-02-22T00:23:48.050Z,71.80
2023-02-22T00:26:19.073Z,72.58
2023-02-22T00:28:48.323Z,72.99
2023-02-22T00:31:16.342Z,73.34
2023-02-22T00:33:44.346Z,73.49
2023-02-22T00:36:13.374Z,73.11
2023-02-22T00:38:41.970Z,71.88
2023-02-22T00:41:13.273Z,71.30
2023-02-22T00:43:41.464Z,70.63
2023-02-22T00:46:09.146Z,71.01
2023-02-22T00:48:36.585Z,71.36
2023-02-22T00:51:04.104Z,72.17
2023-02-22T00:53:31.532Z,70.56
2023-02-22T00:55:59.173Z,70.94
2023-02-22T00:58:27.889Z,71.03
2023-02-22T01:00:55.474Z,73.18
2023-02-22T01:03:22.939Z,73.13
2023-02-22T01:05:50.482Z,71.67
2023-02-22T01:08:18.431Z,71.25
2023-02-22T01:10:46.623Z,70.52
2023-02-22T01:13:14.481Z,70.99
2023-02-22T01:15:45.240Z,71.24
2023-02-22T01:18:13.554Z,72.03
2023-02-22T01:20:41.026Z,70.85
2023-02-22T01:23:10.512Z,71.24
2023-02-22T01:25:38.286Z,71.65
2023-02-22T01:28:07.816Z,71.87
2023-02-22T01:30:37.405Z,72.05
2023-02-22T01:33:08.757Z,72.45
2023-02-22T01:35:38.514Z,72.37
2023-02-22T01:38:05.956Z,72.24
2023-02-22T01:40:34.744Z,71.92
2023-02-22T01:43:05.776Z,71.33
2023-02-22T01:45:57.773Z,72.15
2023-02-22T01:48:31.929Z,72.74
2023-02-22T01:51:02.152Z,72.83
2023-02-22T01:53:34.482Z,72.98
2023-02-22T01:56:03.189Z,74.06
2023-02-22T01:58:32.968Z,73.92
2023-02-22T02:01:01.147Z,73.34
2023-02-22T02:03:34.301Z,73.58
2023-02-22T02:06:04.728Z,73.26
2023-02-22T02:08:37.726Z,73.00
2023-02-22T02:11:09.252Z,74.54
2023-02-22T02:13:37.645Z,74.60
2023-02-22T02:16:05.536Z,73.39
2023-02-22T02:18:34.383Z,73.70
2023-02-22T02:21:25.751Z,74.86
2023-02-22T02:24:15.519Z,74.82
2023-02-22T02:27:06.459Z,74.68
2023-02-22T02:29:54.011Z,76.38
2023-02-22T02:32:35.956Z,75.64
2023-02-22T02:35:11.420Z,75.02
2023-02-22T02:37:48.748Z,76.73
2023-02-22T02:40:22.409Z,76.62
2023-02-22T02:42:57.306Z,76.70
2023-02-22T02:45:30.285Z,76.93
2023-02-22T02:48:02.073Z,77.94
2023-02-22T02:50:34.772Z,77.29
2023-02-22T02:53:05.569Z,76.73
2023-02-22T02:55:36.633Z,77.22
2023-02-22T02:58:05.824Z,78.43
2023-02-22T03:00:39.388Z,78.29
2023-02-22T03:03:21.586Z,78.55
2023-02-22T03:06:08.064Z,79.53
2023-02-22T03:08:43.245Z,78.64
2023-02-22T03:11:16.228Z,80.32
2023-02-22T03:13:55.554Z,79.08
2023-02-22T03:16:33.593Z,78.94
2023-02-22T03:19:09.966Z,78.45
2023-02-22T03:21:46.581Z,78.38
2023-02-22T03:24:21.048Z,78.71
2023-02-22T03:26:53.523Z,78.26
2023-02-22T03:29:25.323Z,79.51
2023-02-22T03:32:01.354Z,78.96
2023-02-22T03:34:35.338Z,78.57
2023-02-22T03:37:09.349Z,77.64
2023-02-22T03:39:39.248Z,78.57
2023-02-22T03:42:12.054Z,78.60
2023-02-22T03:44:41.950Z,79.52
2023-02-22T03:47:14.657Z,79.89
2023-02-22T03:49:49.053Z,80.06
2023-02-22T03:52:17.339Z,79.31
2023-02-22T03:54:45.020Z,80.48
2023-02-22T03:57:17.465Z,80.37
2023-02-22T03:59:45.985Z,80.51
2023-02-22T04:02:13.487Z,79.99
2023-02-22T04:04:40.973Z,80.10
2023-02-22T04:07:09.848Z,79.74
2023-02-22T04:09:37.279Z,80.24
2023-02-22T04:12:05.441Z,79.87
2023-02-22T04:14:32.902Z,81.26
2023-02-22T04:17:01.141Z,80.54
2023-02-22T04:19:28.554Z,81.08
2023-02-22T04:21:56.005Z,81.24
2023-02-22T04:24:24.954Z,82.45
2023-02-22T04:26:53.004Z,81.78
2023-02-22T04:29:20.429Z,81.85
2023-02-22T04:31:48.118Z,81.44
2023-02-22T04:34:15.562Z,82.39
2023-02-22T04:36:44.634Z,81.53
2023-02-22T04:39:12.212Z,81.05
2023-02-22T04:41:40.983Z,82.21
2023-02-22T04:44:08.679Z,81.91
2023-02-22T04:46:36.128Z,81.20
2023-02-22T04:49:03.559Z,82.04
2023-02-22T04:51:31.293Z,80.72
2023-02-22T04:53:58.709Z,81.98
2023-02-22T04:56:26.182Z,81.61
2023-02-22T04:58:54.916Z,81.83
2023-02-22T05:01:23.516Z,82.27
2023-02-22T05:03:50.924Z,82.09
2023-02-22T05:06:18.780Z,83.92
2023-02-22T05:08:46.199Z,83.33
2023-02-22T05:11:13.585Z,81.54
2023-02-22T05:13:42.213Z,81.77
2023-02-22T05:16:11.248Z,82.39
2023-02-22T05:18:38.696Z,81.68
2023-02-22T05:21:06.913Z,83.02
2023-02-22T05:23:34.790Z,83.01
2023-02-22T05:26:02.320Z,83.37
2023-02-22T05:28:29.773Z,82.63
2023-02-22T05:30:57.533Z,82.53
2023-02-22T05:33:26.295Z,82.53
2023-02-22T05:35:56.076Z,82.80
2023-02-22T05:38:23.548Z,82.68
2023-02-22T05:40:51.339Z,81.69
2023-02-22T05:43:18.929Z,82.72
2023-02-22T05:45:46.568Z,84.11
2023-02-22T05:48:14.019Z,82.30
2023-02-22T05:50:43.929Z,82.49
2023-02-22T05:53:11.505Z,82.36
2023-02-22T05:55:38.967Z,81.56
2023-02-22T05:58:06.686Z,81.69
2023-02-22T06:00:34.161Z,81.97
2023-02-22T06:03:03.694Z,83.99
2023-02-22T06:05:31.631Z,84.41
2023-02-22T06:08:00.966Z,82.08
2023-02-22T06:10:29.082Z,81.75
2023-02-22T06:12:58.013Z,82.03
2023-02-22T06:15:26.949Z,81.26
2023-02-22T06:17:55.830Z,80.64
2023-02-22T06:20:25.365Z,81.33
2023-02-22T06:22:55.135Z,80.24
2023-02-22T06:25:27.025Z,80.69
2023-02-22T06:27:54.508Z,80.34
2023-02-22T06:30:23.945Z,80.60
2023-02-22T06:32:51.535Z,79.09
2023-02-22T06:35:19.487Z,81.63
2023-02-22T06:37:47.352Z,80.03
2023-02-22T06:40:15.701Z,81.32
2023-02-22T06:42:44.680Z,79.70
2023-02-22T06:45:12.303Z,79.92
2023-02-22T06:47:41.115Z,78.71
2023-02-22T06:50:18.470Z,79.81
2023-02-22T06:52:47.846Z,79.52
2023-02-22T06:55:18.713Z,79.20
2023-02-22T06:57:47.491Z,78.65
2023-02-22T07:00:17.693Z,78.94
2023-02-22T07:02:45.308Z,79.04
2023-02-22T07:05:13.819Z,78.77
2023-02-22T07:07:41.701Z,77.99
2023-02-22T07:10:16.758Z,77.83
2023-02-22T07:12:44.214Z,79.00
2023-02-22T07:15:13.660Z,77.71
2023-02-22T07:17:41.503Z,77.44
2023-02-22T07:20:11.477Z,82.26
2023-02-22T07:22:39.003Z,81.71
2023-02-22T07:25:09.899Z,79.69
2023-02-22T07:27:38.371Z,78.23
2023-02-22T07:30:07.330Z,79.08
2023-02-22T07:32:36.361Z,77.95
2023-02-22T07:35:03.826Z,77.93
2023-02-22T07:37:31.284Z,76.11
2023-02-22T07:39:58.690Z,76.71
2023-02-22T07:42:26.159Z,76.18
2023-02-22T07:44:53.564Z,75.42
2023-02-22T07:47:20.981Z,78.20
2023-02-22T07:49:50.260Z,79.18
2023-02-22T07:52:18.018Z,82.19
2023-02-22T07:54:47.010Z,83.44
2023-02-22T07:57:14.422Z,83.52
2023-02-22T07:59:41.859Z,82.03
2023-02-22T08:02:16.211Z,79.96
2023-02-22T08:04:43.652Z,78.79
2023-02-22T08:07:12.416Z,77.99
2023-02-22T08:09:39.914Z,76.60
2023-02-22T08:12:07.947Z,76.58
2023-02-22T08:14:35.350Z,75.27
2023-02-22T08:17:02.841Z,77.50
2023-02-22T08:19:30.281Z,75.92
2023-02-22T08:21:57.727Z,76.11
2023-02-22T08:24:26.508Z,74.94
2023-02-22T08:26:53.999Z,76.54
2023-02-22T08:29:23.745Z,75.98
2023-02-22T08:31:54.001Z,75.97
2023-02-22T08:34:21.598Z,76.76
2023-02-22T08:36:49.627Z,76.03
2023-02-22T08:39:18.075Z,77.98
2023-02-22T08:41:47.238Z,82.01
2023-02-22T08:44:14.861Z,75.88
2023-02-22T08:46:42.252Z,75.21
2023-02-22T08:49:09.754Z,73.72
2023-02-22T08:51:37.702Z,75.21
2023-02-22T08:54:06.814Z,77.60
2023-02-22T08:56:34.341Z,79.27
2023-02-22T08:59:03.073Z,75.95
2023-02-22T09:01:33.348Z,78.88
2023-02-22T09:04:01.343Z,75.75
2023-02-22T09:06:29.154Z,75.47
2023-02-22T09:08:56.965Z,76.43
2023-02-22T09:11:24.637Z,75.14
2023-02-22T09:13:52.067Z,72.66
2023-02-22T09:16:20.809Z,71.77
2023-02-22T09:18:48.360Z,73.58
2023-02-22T09:21:16.475Z,75.68
2023-02-22T09:23:44.106Z,72.03
2023-02-22T09:26:11.584Z,73.96
2023-02-22T09:28:38.980Z,73.55
2023-02-22T09:31:06.498Z,71.12
2023-02-22T09:33:38.038Z,72.14
2023-02-22T09:36:06.893Z,74.30
2023-02-22T09:38:34.480Z,72.78
2023-02-22T09:41:12.220Z,71.87
2023-02-22T09:43:45.362Z,72.48
2023-02-22T09:46:27.522Z,71.73
2023-02-22T09:49:05.188Z,71.24
2023-02-22T09:51:39.355Z,72.08
2023-02-22T09:54:14.850Z,71.85
2023-02-22T09:56:43.703Z,70.14
2023-02-22T09:59:18.734Z,71.47
2023-02-22T10:01:49.682Z,71.71
2023-02-22T10:04:23.099Z,68.30
2023-02-22T10:07:05.949Z,69.63
2023-02-22T10:09:37.580Z,71.02
2023-02-22T10:12:11.929Z,72.39
2023-02-22T10:14:49.696Z,69.25
2023-02-22T10:17:27.321Z,71.36
2023-02-22T10:20:06.095Z,67.86
2023-02-22T10:22:45.623Z,69.30
2023-02-22T10:25:17.948Z,68.46
2023-02-22T10:27:53.045Z,69.04
2023-02-22T10:30:25.324Z,67.87
2023-02-22T10:33:00.521Z,67.29
2023-02-22T10:35:31.003Z,69.73
2023-02-22T10:38:02.727Z,68.98
2023-02-22T10:40:33.203Z,66.71
2023-02-22T10:43:05.997Z,65.71
2023-02-22T10:45:36.977Z,65.24
2023-02-22T10:48:11.503Z,65.47
2023-02-22T10:50:43.190Z,64.86
2023-02-22T10:53:11.774Z,64.99
2023-02-22T10:56:10.348Z,64.45
2023-02-22T10:58:43.161Z,69.87
2023-02-22T11:01:27.369Z,67.74
2023-02-22T11:04:00.141Z,68.57
2023-02-22T11:06:29.732Z,67.83
2023-02-22T11:09:10.856Z,67.48
2023-02-22T11:11:39.747Z,66.79
2023-02-22T11:14:10.657Z,67.11
2023-02-22T11:16:41.607Z,65.65
2023-02-22T11:19:20.826Z,65.87
2023-02-22T11:21:52.928Z,65.85
2023-02-22T11:24:24.205Z,65.92
2023-02-22T11:26:54.973Z,68.39
2023-02-22T11:29:27.282Z,67.73
2023-02-22T11:31:56.178Z,68.36
2023-02-22T11:34:31.531Z,69.60
2023-02-22T11:37:16.635Z,71.24
2023-02-22T11:39:44.737Z,67.77
2023-02-22T11:42:23.201Z,68.78
2023-02-22T11:45:08.308Z,66.91
2023-02-22T11:47:36.008Z,66.36
2023-02-22T11:50:11.281Z,68.69
2023-02-22T11:52:47.067Z,65.77
2023-02-22T11:55:36.311Z,66.97
2023-02-22T11:58:27.683Z,66.75
2023-02-22T12:01:07.008Z,69.04
2023-02-22T12:03:50.082Z,68.06
2023-02-22T12:06:27.469Z,69.06
2023-02-22T12:09:06.901Z,68.37
2023-02-22T12:11:44.500Z,67.80
2023-02-22T12:14:22.228Z,67.25
2023-02-22T12:17:08.414Z,66.13
2023-02-22T12:19:40.334Z,67.10
2023-02-22T12:22:11.504Z,67.73
2023-02-22T12:24:46.182Z,67.95
2023-02-22T12:27:20.724Z,66.47
2023-02-22T12:29:52.198Z,64.79
2023-02-22T12:32:29.846Z,64.37
2023-02-22T12:35:05.542Z,64.22
2023-02-22T12:37:39.148Z,65.97
2023-02-22T12:40:15.721Z,66.34
2023-02-22T12:42:53.877Z,63.74
2023-02-22T12:45:31.779Z,65.13
2023-02-22T12:48:13.811Z,64.03
2023-02-22T12:50:44.264Z,64.11
2023-02-22T12:53:19.924Z,66.03
2023-02-22T12:55:52.308Z,64.51
2023-02-22T12:58:25.873Z,66.75
2023-02-22T13:01:01.188Z,68.47
2023-02-22T13:03:34.147Z,66.64
2023-02-22T13:06:14.514Z,65.97
2023-02-22T13:08:51.591Z,66.33
2023-02-22T13:11:27.911Z,68.47
2023-02-22T13:14:14.960Z,67.47
2023-02-22T13:16:52.526Z,68.66
2023-02-22T13:19:35.341Z,67.27
2023-02-22T13:22:10.047Z,69.07
2023-02-22T13:24:47.066Z,66.90
2023-02-22T13:27:22.803Z,66.93
2023-02-22T13:29:55.706Z,64.71
2023-02-22T13:32:37.965Z,68.48
2023-02-22T13:35:35.261Z,65.32
2023-02-22T13:38:21.279Z,66.24
2023-02-22T13:41:13.555Z,64.58
2023-02-22T13:44:13.535Z,65.59
2023-02-22T13:47:21.834Z,64.82
2023-02-22T13:50:16.797Z,65.83
2023-02-22T13:52:46.295Z,65.01
2023-02-22T13:55:19.060Z,65.46
2023-02-22T13:57:49.909Z,66.29
2023-02-22T14:00:41.743Z,64.58
2023-02-22T14:03:36.062Z,67.19
2023-02-22T14:06:06.325Z,65.68
2023-02-22T14:08:44.094Z,67.10
2023-02-22T14:11:56.849Z,67.10
2023-02-22T14:14:24.813Z,67.82
2023-02-22T14:17:30.536Z,65.29
2023-02-22T14:20:20.721Z,65.02
2023-02-22T14:22:50.213Z,67.29
2023-02-22T14:28:10.773Z,67.06
2023-02-22T14:30:40.152Z,66.74
2023-02-22T14:33:44.303Z,68.74
2023-02-22T14:36:13.725Z,68.27
2023-02-22T14:38:45.325Z,67.96
2023-02-22T14:41:14.929Z,67.54
2023-02-22T14:43:43.139Z,67.05
2023-02-22T14:46:17.200Z,67.11
2023-02-22T14:48:47.637Z,67.89
2023-02-22T14:51:24.181Z,67.01
2023-02-22T14:53:59.478Z,69.78
2023-02-22T14:56:36.177Z,71.53
2023-02-22T14:59:16.082Z,70.38
2023-02-22T15:01:58.417Z,70.56
2023-02-22T15:04:31.968Z,71.62
2023-02-22T15:07:09.087Z,72.54
2023-02-22T15:09:37.482Z,69.01
2023-02-22T15:12:14.400Z,70.43
2023-02-22T15:14:44.618Z,67.96
2023-02-22T15:17:19.512Z,67.89
2023-02-22T15:19:49.508Z,67.79
2023-02-22T15:22:23.529Z,70.33
2023-02-22T15:24:59.683Z,68.75
2023-02-22T15:27:28.199Z,67.94
2023-02-22T15:30:00.158Z,67.41
2023-02-22T15:32:36.092Z,68.56
2023-02-22T15:35:14.074Z,68.39
2023-02-22T15:37:44.343Z,69.08
2023-02-22T15:40:15.950Z,72.05
2023-02-22T15:42:45.363Z,68.59
2023-02-22T15:45:19.846Z,69.09
2023-02-22T15:47:49.367Z,70.95
2023-02-22T15:50:24.048Z,70.43
2023-02-22T15:52:58.379Z,70.62
2023-02-22T15:55:29.635Z,71.69
2023-02-22T15:58:01.583Z,72.67
2023-02-22T16:00:36.199Z,72.79
2023-02-22T16:03:05.622Z,69.95
2023-02-22T16:05:39.710Z,72.15
2023-02-22T16:08:17.920Z,74.70
2023-02-22T16:10:54.296Z,74.85
2023-02-22T16:13:31.410Z,72.22
2023-02-22T16:16:02.694Z,74.00
2023-02-22T16:18:33.650Z,73.98
2023-02-22T16:21:05.142Z,73.14
2023-02-22T16:23:46.004Z,71.78
2023-02-22T16:26:29.048Z,73.30
2023-02-22T16:28:57.982Z,73.57
2023-02-22T16:31:28.045Z,74.35
2023-02-22T16:33:55.871Z,73.83
2023-02-22T16:36:36.943Z,72.19
2023-02-22T16:39:08.098Z,75.14
2023-02-22T16:41:35.763Z,74.81
2023-02-22T16:44:03.470Z,74.46
2023-02-22T16:46:30.986Z,74.79
2023-02-22T16:49:03.249Z,74.99
2023-02-22T16:51:39.672Z,71.52
2023-02-22T16:54:12.772Z,70.95
2023-02-22T16:56:41.370Z,72.15
2023-02-22T16:59:12.202Z,72.19
2023-02-22T17:01:39.785Z,72.71
2023-02-22T17:04:14.791Z,72.87
2023-02-22T17:06:42.488Z,72.02
2023-02-22T17:09:11.536Z,73.48
2023-02-22T17:11:39.729Z,74.43
2023-02-22T17:14:07.250Z,73.40
2023-02-22T17:16:34.881Z,72.19
2023-02-22T17:19:04.898Z,73.40
2023-02-22T17:21:32.703Z,75.08
2023-02-22T17:24:00.198Z,75.05
2023-02-22T17:26:28.925Z,72.66
2023-02-22T17:28:56.318Z,73.02
2023-02-22T17:31:30.475Z,72.06
2023-02-22T17:34:02.103Z,73.33
2023-02-22T17:36:29.637Z,74.38
2023-02-22T17:38:57.269Z,74.07
2023-02-22T17:41:24.685Z,72.58
2023-02-22T17:43:54.266Z,73.69
2023-02-22T17:46:21.879Z,75.69
2023-02-22T17:48:49.427Z,74.56
2023-02-22T17:51:17.341Z,75.38
2023-02-22T17:53:44.810Z,73.38
2023-02-22T17:56:16.683Z,74.39
2023-02-22T17:58:44.324Z,73.37
2023-02-22T18:01:24.575Z,71.16
2023-02-22T18:03:53.055Z,71.54
2023-02-22T18:06:25.141Z,71.41
2023-02-22T18:08:55.840Z,72.38
2023-02-22T18:11:26.218Z,72.68
2023-02-22T18:13:54.512Z,71.83
2023-02-22T18:16:25.486Z,72.39
2023-02-22T18:18:53.096Z,72.06
2023-02-22T18:21:20.529Z,71.74
2023-02-22T18:23:48.059Z,72.39
2023-02-22T18:26:17.319Z,71.27
2023-02-22T18:28:44.906Z,73.03
2023-02-22T18:31:14.836Z,71.09
2023-02-22T18:33:44.170Z,71.51
2023-02-22T18:36:12.651Z,72.56
2023-02-22T18:38:42.836Z,71.87
2023-02-22T18:41:12.756Z,71.89
2023-02-22T18:43:40.894Z,71.30
2023-02-22T18:46:10.366Z,71.69
2023-02-22T18:48:38.932Z,72.53
2023-02-22T18:51:10.328Z,72.65
2023-02-22T18:53:38.342Z,72.63
2023-02-22T18:56:07.436Z,72.69
2023-02-22T18:58:35.360Z,73.63
2023-02-22T19:01:03.606Z,73.48
2023-02-22T19:03:33.091Z,72.47
2023-02-22T19:06:03.444Z,71.92
2023-02-22T19:08:33.073Z,72.07
2023-02-22T19:11:06.372Z,73.23
2023-02-22T19:13:35.119Z,72.44
2023-02-22T19:16:03.824Z,72.11
2023-02-22T19:18:31.954Z,76.51
2023-02-22T19:20:59.499Z,74.41
2023-02-22T19:23:27.097Z,72.59
2023-02-22T19:25:55.830Z,71.65
2023-02-22T19:28:28.007Z,71.42
2023-02-22T19:30:55.562Z,71.76
2023-02-22T19:33:26.045Z,71.39
2023-02-22T19:35:53.726Z,72.42
2023-02-22T19:38:21.309Z,70.91
2023-02-22T19:40:48.751Z,73.65
2023-02-22T19:43:17.539Z,73.56
2023-02-22T19:45:44.950Z,71.27
2023-02-22T19:48:14.251Z,72.28
2023-02-22T19:50:48.792Z,71.13
2023-02-22T19:53:16.321Z,73.06
2023-02-22T19:55:44.140Z,74.36
2023-02-22T19:58:14.705Z,74.30
2023-02-22T20:00:43.409Z,74.52
2023-02-22T20:03:13.374Z,74.89
2023-02-22T20:05:41.868Z,76.36
2023-02-22T20:08:09.722Z,74.52
2023-02-22T20:10:37.133Z,73.89
2023-02-22T20:13:04.735Z,75.45
2023-02-22T20:15:34.448Z,75.31
2023-02-22T20:18:03.344Z,74.81
2023-02-22T20:20:31.797Z,72.81
2023-02-22T20:22:59.249Z,73.15
2023-02-22T20:25:26.643Z,72.88
2023-02-22T20:27:56.257Z,74.24
2023-02-22T20:30:23.714Z,72.50
2023-02-22T20:32:51.526Z,74.51
2023-02-22T20:35:21.143Z,77.87
2023-02-22T20:37:48.538Z,74.60
2023-02-22T20:40:16.182Z,72.93
2023-02-22T20:42:44.544Z,75.17
2023-02-22T20:45:12.096Z,74.71
2023-02-22T20:47:39.561Z,76.33
2023-02-22T20:50:08.249Z,74.05
2023-02-22T20:52:37.086Z,79.49
2023-02-22T20:55:04.709Z,75.29
2023-02-22T20:57:32.130Z,75.58
2023-02-22T21:00:00.471Z,74.04
2023-02-22T21:02:28.027Z,74.88
2023-02-22T21:04:55.465Z,74.75
2023-02-22T21:07:22.993Z,74.49
2023-02-22T21:09:52.524Z,73.41
2023-02-22T21:12:19.983Z,72.85
2023-02-22T21:14:47.394Z,73.29
2023-02-22T21:17:14.833Z,73.71
2023-02-22T21:19:42.490Z,72.22
2023-02-22T21:22:10.255Z,71.66
2023-02-22T21:24:37.960Z,72.67
2023-02-22T21:27:06.957Z,71.01
2023-02-22T21:29:35.524Z,69.84
2023-02-22T21:32:03.829Z,75.31
2023-02-22T21:34:31.355Z,72.86
2023-02-22T21:36:58.767Z,72.02
2023-02-22T21:39:28.525Z,73.53
2023-02-22T21:42:00.047Z,74.62
2023-02-22T21:44:29.621Z,74.16
2023-02-22T21:46:57.144Z,71.31
2023-02-22T21:49:25.037Z,71.34
2023-02-22T21:51:52.967Z,74.50
2023-02-22T21:54:20.866Z,72.68
2023-02-22T21:56:48.386Z,72.88
2023-02-22T21:59:19.022Z,75.16
2023-02-22T22:01:49.895Z,72.85
2023-02-22T22:04:19.789Z,74.83
2023-02-22T22:06:49.120Z,75.22
2023-02-22T22:09:19.930Z,77.13
2023-02-22T22:11:49.539Z,80.24
2023-02-22T22:14:18.593Z,76.26
2023-02-22T22:16:48.860Z,72.57
2023-02-22T22:19:16.370Z,72.43
2023-02-22T22:21:43.783Z,73.57
2023-02-22T22:24:11.998Z,73.13
2023-02-22T22:26:42.561Z,75.04
2023-02-22T22:29:11.437Z,73.66
2023-02-22T22:31:39.151Z,75.83
2023-02-22T22:34:08.086Z,76.14
2023-02-22T22:36:36.483Z,69.62
2023-02-22T22:39:12.931Z,75.39
2023-02-22T22:41:41.365Z,75.01
2023-02-22T22:44:09.871Z,75.62
2023-02-22T22:46:40.325Z,74.76
2023-02-22T22:49:10.705Z,74.83
2023-02-22T22:51:40.806Z,75.25
2023-02-22T22:54:09.409Z,77.09
2023-02-22T22:56:39.264Z,75.83
2023-02-22T22:59:09.553Z,76.72
2023-02-22T23:01:40.561Z,77.14
2023-02-22T23:04:12.115Z,77.48
2023-02-22T23:06:41.658Z,76.88
2023-02-22T23:09:11.793Z,76.74
2023-02-22T23:11:44.330Z,77.03
2023-02-22T23:14:13.328Z,78.31
2023-02-22T23:16:41.922Z,76.98
2023-02-22T23:19:10.865Z,77.38
2023-02-22T23:21:39.290Z,76.69
2023-02-22T23:24:07.452Z,77.72
2023-02-22T23:26:35.709Z,77.61
2023-02-22T23:29:04.004Z,78.99
2023-02-22T23:31:32.062Z,79.35
2023-02-22T23:34:00.279Z,79.57
2023-02-22T23:36:29.447Z,77.39
2023-02-22T23:38:56.899Z,78.08
2023-02-22T23:41:28.334Z,80.35
2023-02-22T23:43:55.761Z,78.66
2023-02-22T23:46:23.206Z,79.50
2023-02-22T23:48:53.059Z,79.55
2023-02-22T23:51:25.358Z,77.82
2023-02-22T23:53:56.401Z,77.33
2023-02-22T23:56:26.486Z,79.30
2023-02-22T23:58:57.371Z,78.43
